Terminal Aerodrome Forecast
Issued by NWS

Home | Current Version | Previous Version | Text Only | Print | Product List | Glossary On
Versions: 1 2 3 4 5 6 7 8 9 10 11 12 13 14 15 16 17 18
000
FTUS44 KCRP 201525 AAA
TAFALI
TAF AMD
KALI 201525Z 2015/2112 03006KT 1 1/2SM BR OVC003
      TEMPO 2016/2017 3SM BR OVC008
     FM201700 VRB04KT P6SM BKN011 OVC250
     FM202200 15005KT P6SM SCT025 BKN050
     FM210400 13004KT 1 1/2SM BR OVC004
     FM210700 VRB03KT 1/2SM FG VV002=

USA.gov is the U.S. government's official web portal to all federal, state and local government web resources and services.